»·PEaware :: N9229P KSMX-KBFL

N9229P :: KSMX-KBFL

FLIGHT INFORMATION

Flight Status: Arrived
Operator: Privately registered:
United States
More flights under this callsign
Pilot: James W. (24810)
Aircraft: PIPER PA-24 COMMANCHE
(PA24)
More flights by this aircraft type
Origin: KSMX Santa Maria Pub/Capt Hancock
United States
Destination: KBFL Meadows
United States
More flights between these airports :: More routes between these airports
Route: +
File this flight plan on PilotEdge
Remarks: CAT-5 Test
Altitude:
(Current/Filed)
7,500ft
Speed:
(Current/Filed)
150kts
Departed: 11-Oct-19 08:24 PM
Arrived: 11-Oct-19 09:03 PM
Distance/Time
Traveled:
76nm/0:39
Distance/Time
To Go:
Arrived

Flight Plot

Page will automatically refresh every two minutes.


Map Options




Map Legend


Flown Route
Filed Route
Departure Airport
Arrival Airport
Navaid (VOR, NDB)
Fix

Horizontal Profiles

Position Reports

Time Latitude Longitude Heading Altitude Ground
Speed
11-Oct-19 20:08 34.907041 -120.458895 162 263ft 0kts
11-Oct-19 20:09 34.907040 -120.458895 162 263ft 0kts
11-Oct-19 20:10 34.907040 -120.458895 162 263ft 0kts
11-Oct-19 20:11 34.906585 -120.458480 180 263ft 0kts
11-Oct-19 20:12 34.906545 -120.458480 180 263ft 0kts
11-Oct-19 20:13 34.906545 -120.458480 180 263ft 0kts
11-Oct-19 20:14 34.906545 -120.458480 180 263ft 0kts
11-Oct-19 20:15 34.906478 -120.458490 192 263ft 2kts
11-Oct-19 20:16 34.904330 -120.457180 135 263ft 17kts
11-Oct-19 20:17 34.900008 -120.451972 135 263ft 24kts
11-Oct-19 20:18 34.895199 -120.446274 136 263ft 21kts
11-Oct-19 20:19 34.894040 -120.445162 175 263ft 0kts
11-Oct-19 20:20 34.893593 -120.445110 175 263ft 6kts
11-Oct-19 20:21 34.893440 -120.445099 177 263ft 0kts
11-Oct-19 20:22 34.893072 -120.446230 313 263ft 25kts
11-Oct-19 20:23 34.911353 -120.468828 312 795ft 135kts
11-Oct-19 20:24 34.941667 -120.470911 81 1630ft 149kts
11-Oct-19 20:25 34.954540 -120.426980 66 2487ft 150kts
11-Oct-19 20:26 34.969776 -120.385317 68 3304ft 148kts
11-Oct-19 20:27 34.986136 -120.339460 68 4211ft 145kts
11-Oct-19 20:28 34.998468 -120.303412 69 4933ft 141kts
11-Oct-19 20:29 35.014000 -120.261055 67 5831ft 133kts
11-Oct-19 20:30 35.028485 -120.220545 68 6731ft 128kts
11-Oct-19 20:31 35.041718 -120.183284 68 7470ft 131kts
11-Oct-19 20:32 35.057894 -120.137395 68 7490ft 159kts
11-Oct-19 20:33 35.074421 -120.090727 68 7491ft 165kts
11-Oct-19 20:34 35.088811 -120.050038 68 7492ft 167kts
11-Oct-19 20:35 35.103701 -119.997212 74 7492ft 162kts
11-Oct-19 20:36 35.114468 -119.967783 64 7491ft 156kts
11-Oct-19 20:37 35.129798 -119.926868 68 7492ft 152kts
11-Oct-19 20:38 35.146593 -119.879747 68 7493ft 150kts
11-Oct-19 20:39 35.163719 -119.831509 68 7495ft 158kts
11-Oct-19 20:40 35.181354 -119.781621 68 7497ft 160kts
11-Oct-19 20:41 35.199088 -119.731379 68 7496ft 161kts
11-Oct-19 20:42 35.216913 -119.680759 64 7491ft 160kts
11-Oct-19 20:43 35.234591 -119.630415 65 7321ft 159kts
11-Oct-19 20:44 35.252086 -119.580252 65 6751ft 161kts
11-Oct-19 20:45 35.269881 -119.529489 65 6146ft 161kts
11-Oct-19 20:46 35.287604 -119.478857 65 5541ft 159kts
11-Oct-19 20:47 35.304175 -119.431409 64 4930ft 146kts
11-Oct-19 20:48 35.317317 -119.384673 78 4322ft 145kts
11-Oct-19 20:49 35.323183 -119.335698 79 3723ft 145kts
11-Oct-19 20:50 35.327403 -119.299638 79 3482ft 133kts
11-Oct-19 20:51 35.331791 -119.259992 79 3482ft 117kts
11-Oct-19 20:52 35.336165 -119.221966 78 3491ft 109kts
11-Oct-19 20:53 35.340790 -119.186236 76 3492ft 107kts
11-Oct-19 20:54 35.345341 -119.152948 74 3489ft 90kts
11-Oct-19 20:55 35.348307 -119.127467 77 3138ft 72kts
11-Oct-19 20:56 35.351513 -119.103756 50 2638ft 67kts
11-Oct-19 20:57 35.365076 -119.084845 46 2151ft 82kts
11-Oct-19 20:58 35.380769 -119.061973 46 1563ft 91kts
11-Oct-19 20:59 35.399422 -119.043970 15 1064ft 90kts
11-Oct-19 21:00 35.419158 -119.042884 343 750ft 86kts
11-Oct-19 21:01 35.434240 -119.056596 317 508ft 54kts
11-Oct-19 21:03 35.439268 -119.062558 337 508ft 8kts
11-Oct-19 21:04 35.439457 -119.060719 135 508ft 23kts
11-Oct-19 21:05 35.437433 -119.056158 110 508ft 2kts
11-Oct-19 21:06 35.437390 -119.056020 111 508ft 0kts
11-Oct-19 21:07 35.437360 -119.055924 111 508ft 0kts
11-Oct-19 21:08 35.437329 -119.055829 111 508ft 0kts

Navigation Log

Ident Type
Flight plan parsing failed, navigation log unavailable